Time;durP1;ratioP1;P1;durP2;ratioP2;P2;SDS_P1;SDS_P2;PMS_P1;PMS_P2;Temp;Humidity;BMP_temperature;BMP_pressure;BME280_temperature;BME280_humidity;BME280_pressure;Samples;Min_cycle;Max_cycle;Signal;HPM_P1;HPM_P2
2022/03/08 00:01:44;;;;;;;0.70;0.70;;;2.70;99.90;;;;;;4445814;32;20080;-64
2022/03/08 00:04:10;;;;;;;0.60;0.60;;;2.70;99.90;;;;;;4445679;32;20855;-64
2022/03/08 00:06:35;;;;;;;0.40;0.40;;;2.70;99.90;;;;;;4445490;32;20065;-64
2022/03/08 00:09:01;;;;;;;0.40;0.40;;;2.60;99.90;;;;;;4447478;32;20092;-64
2022/03/08 00:11:26;;;;;;;0.50;0.50;;;2.40;99.90;;;;;;4429033;32;20430;-64
2022/03/08 00:13:52;;;;;;;1.33;1.00;;;2.10;99.90;;;;;;4443393;32;20124;-64
2022/03/08 00:16:19;;;;;;;0.40;0.40;;;2.10;99.90;;;;;;4442157;32;20142;-64
2022/03/08 00:18:44;;;;;;;0.40;0.40;;;2.20;99.90;;;;;;4442475;32;20470;-64
2022/03/08 00:21:11;;;;;;;0.55;0.55;;;2.30;99.90;;;;;;4444080;32;20065;-64
2022/03/08 00:23:37;;;;;;;0.45;0.45;;;2.30;99.90;;;;;;4442462;32;20060;-64
2022/03/08 00:26:03;;;;;;;1.08;0.98;;;2.40;99.90;;;;;;4429871;32;20131;-64
2022/03/08 00:28:28;;;;;;;0.40;0.40;;;2.30;99.90;;;;;;4444373;32;20107;-64
2022/03/08 00:30:55;;;;;;;0.40;0.40;;;2.20;99.90;;;;;;4443066;32;20073;-64
2022/03/08 00:33:20;;;;;;;0.35;0.35;;;2.10;99.90;;;;;;4429986;32;20080;-64
2022/03/08 00:35:46;;;;;;;0.40;0.40;;;2.00;99.90;;;;;;4434055;32;20081;-64
2022/03/08 00:38:12;;;;;;;0.40;0.40;;;2.00;99.90;;;;;;4421670;32;20097;-64
2022/03/08 00:40:37;;;;;;;0.40;0.40;;;1.80;99.90;;;;;;4424477;32;20057;-64
2022/03/08 00:43:03;;;;;;;0.43;0.43;;;1.90;99.90;;;;;;4426520;32;20093;-64
2022/03/08 00:45:28;;;;;;;1.25;1.15;;;1.90;99.90;;;;;;4427571;32;20077;-64
2022/03/08 00:47:54;;;;;;;0.30;0.30;;;1.90;99.90;;;;;;4433990;32;20061;-64
2022/03/08 00:50:25;;;;;;;0.30;0.30;;;1.80;99.90;;;;;;4421387;32;20064;-64
2022/03/08 00:52:52;;;;;;;0.30;0.30;;;1.60;99.90;;;;;;4431897;32;20098;-64
2022/03/08 00:55:19;;;;;;;0.40;0.40;;;1.50;99.90;;;;;;4420859;32;20057;-64
2022/03/08 00:57:45;;;;;;;0.40;0.40;;;1.50;99.90;;;;;;4422490;32;20121;-64
2022/03/08 01:00:13;;;;;;;0.70;0.70;;;1.70;99.90;;;;;;4419684;32;20066;-63
2022/03/08 01:02:39;;;;;;;0.37;0.37;;;1.80;99.90;;;;;;4430878;32;20072;-64
2022/03/08 01:05:05;;;;;;;5.28;0.75;;;1.80;99.90;;;;;;4417065;32;20081;-64
2022/03/08 01:07:30;;;;;;;0.40;0.40;;;1.70;99.90;;;;;;4419047;32;20303;-64
2022/03/08 01:09:56;;;;;;;0.40;0.40;;;1.80;99.90;;;;;;4427251;32;20108;-64
2022/03/08 01:12:22;;;;;;;1.37;0.65;;;1.80;99.90;;;;;;4432263;32;20084;-64
2022/03/08 01:14:48;;;;;;;0.70;0.70;;;1.80;99.90;;;;;;4419795;32;20508;-64
2022/03/08 01:17:13;;;;;;;0.50;0.50;;;1.70;99.90;;;;;;4436941;32;20524;-64
2022/03/08 01:19:39;;;;;;;1.48;1.10;;;1.70;99.90;;;;;;4435032;32;20483;-64
2022/03/08 01:22:04;;;;;;;0.45;0.45;;;1.80;99.90;;;;;;4432036;32;20064;-64
2022/03/08 01:24:30;;;;;;;0.40;0.40;;;1.80;99.90;;;;;;4420805;32;20098;-64
2022/03/08 01:26:56;;;;;;;0.65;0.65;;;1.70;99.90;;;;;;4420229;32;20073;-64
2022/03/08 01:29:23;;;;;;;0.40;0.40;;;1.70;99.90;;;;;;4424312;32;20192;-64
2022/03/08 01:31:48;;;;;;;0.50;0.50;;;1.60;99.90;;;;;;4427716;32;20069;-64
2022/03/08 01:34:14;;;;;;;0.68;0.68;;;1.60;99.90;;;;;;4419603;32;20086;-64
2022/03/08 01:36:40;;;;;;;0.68;0.68;;;1.60;99.90;;;;;;4433200;32;20137;-64
2022/03/08 01:39:05;;;;;;;0.47;0.47;;;1.60;99.90;;;;;;4437252;32;20461;-66
2022/03/08 01:41:31;;;;;;;6.07;3.12;;;1.70;99.90;;;;;;4437543;32;20165;-63
2022/03/08 01:43:56;;;;;;;0.80;0.80;;;1.40;99.90;;;;;;4435411;32;20077;-64
2022/03/08 01:46:22;;;;;;;0.57;0.57;;;1.30;99.90;;;;;;4437119;32;20529;-64
2022/03/08 01:48:48;;;;;;;0.77;0.77;;;1.20;99.90;;;;;;4442122;32;20073;-65
2022/03/08 01:51:15;;;;;;;0.50;0.50;;;1.10;99.90;;;;;;4418962;32;20229;-64
2022/03/08 01:53:40;;;;;;;0.65;0.65;;;1.00;99.90;;;;;;4436494;32;20112;-64
2022/03/08 01:56:08;;;;;;;0.40;0.40;;;0.90;99.90;;;;;;4434258;32;20065;-64
2022/03/08 01:58:35;;;;;;;0.40;0.40;;;0.90;99.90;;;;;;4440151;32;20116;-64
2022/03/08 02:01:00;;;;;;;0.40;0.40;;;0.90;99.90;;;;;;4437661;32;20143;-64
2022/03/08 02:03:26;;;;;;;0.40;0.40;;;0.90;99.90;;;;;;4435168;32;20082;-64
2022/03/08 02:05:51;;;;;;;0.40;0.40;;;0.90;99.90;;;;;;4432197;32;20073;-64
2022/03/08 02:08:17;;;;;;;0.40;0.40;;;0.70;99.90;;;;;;4436311;32;20057;-64
2022/03/08 02:10:43;;;;;;;0.70;0.70;;;0.70;99.90;;;;;;4434682;32;20416;-64
2022/03/08 02:13:08;;;;;;;0.45;0.45;;;0.70;99.90;;;;;;4431963;32;20139;-64
2022/03/08 02:15:33;;;;;;;0.80;0.80;;;0.70;99.90;;;;;;4430414;32;20066;-64
2022/03/08 02:18:01;;;;;;;0.40;0.40;;;0.80;99.90;;;;;;4435164;32;20112;-64
2022/03/08 02:20:27;;;;;;;3.30;0.95;;;0.80;99.90;;;;;;4425739;32;20120;-64
2022/03/08 02:22:53;;;;;;;0.93;0.93;;;0.80;99.90;;;;;;4422875;32;22291;-64
2022/03/08 02:25:21;;;;;;;0.32;0.32;;;0.80;99.90;;;;;;4417279;32;20074;-64
2022/03/08 02:27:49;;;;;;;0.70;0.70;;;0.80;99.90;;;;;;4435149;32;20084;-64
2022/03/08 02:30:16;;;;;;;0.40;0.40;;;0.80;99.90;;;;;;4433882;32;20069;-64
2022/03/08 02:32:44;;;;;;;0.40;0.40;;;0.80;99.90;;;;;;4420709;32;20065;-64
2022/03/08 02:35:12;;;;;;;0.50;0.50;;;0.90;99.90;;;;;;4422739;32;20085;-64
2022/03/08 02:37:41;;;;;;;0.60;0.60;;;1.00;99.90;;;;;;4431066;32;20097;-64
2022/03/08 02:40:09;;;;;;;0.55;0.55;;;1.10;99.90;;;;;;4429938;32;20081;-64
2022/03/08 02:42:35;;;;;;;0.40;0.40;;;1.10;99.90;;;;;;4437678;32;20615;-64
2022/03/08 02:45:00;;;;;;;0.40;0.40;;;1.00;99.90;;;;;;4432719;32;20100;-64
2022/03/08 02:47:26;;;;;;;0.45;0.45;;;1.00;99.90;;;;;;4418102;32;20179;-64
2022/03/08 02:49:51;;;;;;;0.30;0.30;;;1.00;99.90;;;;;;4434010;32;20609;-64
2022/03/08 02:52:17;;;;;;;0.40;0.40;;;1.00;99.90;;;;;;4436840;32;20073;-64
2022/03/08 02:54:42;;;;;;;0.40;0.40;;;0.90;99.90;;;;;;4431691;32;20473;-64
2022/03/08 02:57:08;;;;;;;0.30;0.30;;;0.80;99.90;;;;;;4435350;32;20108;-64
2022/03/08 02:59:33;;;;;;;0.60;0.60;;;0.80;99.90;;;;;;4437235;32;20119;-64
2022/03/08 03:01:59;;;;;;;0.65;0.65;;;0.80;99.90;;;;;;4434146;32;20126;-64
2022/03/08 03:04:24;;;;;;;0.47;0.47;;;0.80;99.90;;;;;;4433894;32;20414;-64
2022/03/08 03:06:49;;;;;;;0.82;0.82;;;0.80;99.90;;;;;;4436240;32;20134;-63
2022/03/08 03:09:15;;;;;;;0.60;0.52;;;0.80;99.90;;;;;;4435763;32;20073;-65
2022/03/08 03:11:40;;;;;;;0.60;0.60;;;0.90;99.90;;;;;;4433769;32;20586;-63
2022/03/08 03:14:06;;;;;;;0.55;0.55;;;1.00;99.90;;;;;;4433067;32;20092;-63
2022/03/08 03:16:32;;;;;;;0.50;0.50;;;1.10;99.90;;;;;;4430265;32;20127;-65
2022/03/08 03:18:57;;;;;;;0.57;0.57;;;1.20;99.90;;;;;;4418434;32;20659;-65
2022/03/08 03:21:22;;;;;;;0.65;0.65;;;1.20;99.90;;;;;;4436070;32;20077;-65
2022/03/08 03:23:48;;;;;;;0.32;0.32;;;1.00;99.90;;;;;;4434084;32;20477;-64
2022/03/08 03:26:13;;;;;;;1.55;0.88;;;0.90;99.90;;;;;;4434541;32;20116;-64
2022/03/08 03:28:39;;;;;;;2.28;1.33;;;0.70;99.90;;;;;;4440443;32;20545;-64
2022/03/08 03:31:04;;;;;;;0.80;0.77;;;0.70;99.90;;;;;;4433867;32;20070;-64
2022/03/08 03:33:30;;;;;;;0.47;0.47;;;0.50;99.90;;;;;;4418971;32;20134;-64
2022/03/08 03:35:55;;;;;;;0.70;0.70;;;0.40;99.90;;;;;;4435558;32;20545;-64
2022/03/08 03:38:21;;;;;;;0.50;0.50;;;0.50;99.90;;;;;;4434807;32;20375;-64
2022/03/08 03:40:46;;;;;;;0.62;0.62;;;0.60;99.90;;;;;;4431032;32;20081;-64
2022/03/08 03:43:12;;;;;;;0.77;0.77;;;0.70;99.90;;;;;;4430940;32;20073;-64
2022/03/08 03:45:37;;;;;;;0.75;0.73;;;0.70;99.90;;;;;;4438450;32;20151;-64
2022/03/08 03:48:03;;;;;;;0.50;0.50;;;0.70;99.90;;;;;;4420418;32;20536;-64
2022/03/08 03:50:29;;;;;;;0.43;0.43;;;0.50;99.90;;;;;;4434522;32;20065;-64
2022/03/08 03:52:55;;;;;;;0.65;0.65;;;0.40;99.90;;;;;;4423739;32;20450;-64
2022/03/08 03:55:20;;;;;;;0.40;0.40;;;0.50;99.90;;;;;;4439229;32;20659;-64
2022/03/08 03:57:46;;;;;;;0.68;0.68;;;0.50;99.90;;;;;;4439038;32;20119;-64
2022/03/08 04:00:14;;;;;;;0.50;0.50;;;0.50;99.90;;;;;;4436677;32;20097;-64
2022/03/08 04:02:39;;;;;;;0.40;0.40;;;0.40;99.90;;;;;;4433480;32;20507;-64
2022/03/08 04:05:06;;;;;;;0.52;0.52;;;0.50;99.90;;;;;;4438775;32;20112;-64
2022/03/08 04:07:32;;;;;;;0.30;0.30;;;0.60;99.90;;;;;;4421201;32;20086;-64
2022/03/08 04:09:57;;;;;;;0.40;0.40;;;0.70;99.90;;;;;;4436904;32;20081;-64
2022/03/08 04:12:23;;;;;;;0.95;0.95;;;0.70;99.90;;;;;;4431224;32;20424;-64
2022/03/08 04:14:48;;;;;;;1.35;1.12;;;0.60;99.90;;;;;;4435384;32;20104;-64
2022/03/08 04:17:14;;;;;;;0.68;0.68;;;0.60;99.90;;;;;;4436398;32;20120;-64
2022/03/08 04:19:40;;;;;;;0.45;0.45;;;0.70;99.90;;;;;;4422155;32;20065;-64
2022/03/08 04:22:06;;;;;;;0.50;0.50;;;0.80;99.90;;;;;;4435020;32;20078;-64
2022/03/08 04:24:32;;;;;;;0.40;0.40;;;0.80;99.90;;;;;;4435421;32;20752;-64
2022/03/08 04:26:58;;;;;;;0.68;0.68;;;0.90;99.90;;;;;;4433196;32;20121;-64
2022/03/08 04:29:24;;;;;;;0.60;0.60;;;0.80;99.90;;;;;;4421475;32;20462;-64
2022/03/08 04:31:50;;;;;;;0.95;0.95;;;0.70;99.90;;;;;;4419633;32;20069;-64
2022/03/08 04:34:15;;;;;;;0.40;0.40;;;0.60;99.90;;;;;;4423994;32;20068;-64
2022/03/08 04:36:41;;;;;;;0.73;0.65;;;0.50;99.90;;;;;;4424576;32;20434;-64
2022/03/08 04:39:06;;;;;;;1.08;1.00;;;0.60;99.90;;;;;;4433907;32;20074;-64
2022/03/08 04:41:32;;;;;;;0.52;0.52;;;0.70;99.90;;;;;;4422244;32;20354;-64
2022/03/08 04:43:58;;;;;;;6.00;1.10;;;0.70;99.90;;;;;;4436204;32;20073;-64
2022/03/08 04:46:24;;;;;;;0.60;0.60;;;0.60;99.90;;;;;;4435442;32;20122;-64
2022/03/08 04:48:49;;;;;;;0.43;0.43;;;0.60;99.90;;;;;;4419892;32;20081;-64
2022/03/08 04:51:15;;;;;;;0.65;0.65;;;0.60;99.90;;;;;;4435764;32;20188;-64
2022/03/08 04:53:42;;;;;;;0.50;0.50;;;0.70;99.90;;;;;;4424526;32;20555;-64
2022/03/08 04:56:07;;;;;;;0.70;0.70;;;0.60;99.90;;;;;;4437297;32;20224;-63
2022/03/08 04:58:33;;;;;;;0.40;0.40;;;0.30;99.90;;;;;;4431528;32;20065;-63
2022/03/08 05:00:58;;;;;;;0.82;0.82;;;0.20;99.90;;;;;;4441409;32;20583;-63
2022/03/08 05:03:23;;;;;;;0.40;0.40;;;0.10;99.90;;;;;;4432033;32;20123;-63
2022/03/08 05:05:49;;;;;;;1.35;0.80;;;0.10;99.90;;;;;;4441629;32;20092;-63
2022/03/08 05:08:14;;;;;;;0.50;0.50;;;0.10;99.90;;;;;;4434385;32;20514;-63
2022/03/08 05:10:40;;;;;;;0.93;0.90;;;0.10;99.90;;;;;;4429787;32;20081;-64
2022/03/08 05:13:06;;;;;;;1.08;1.05;;;0.20;99.90;;;;;;4420827;32;20076;-64
2022/03/08 05:15:32;;;;;;;0.80;0.73;;;0.20;99.90;;;;;;4432783;32;20072;-64
2022/03/08 05:17:57;;;;;;;0.52;0.52;;;0.20;99.90;;;;;;4437371;32;20073;-64
2022/03/08 05:20:23;;;;;;;0.75;0.75;;;0.30;99.90;;;;;;4434941;32;20080;-64
2022/03/08 05:22:48;;;;;;;1.25;0.98;;;0.30;99.90;;;;;;4436997;32;20161;-64
2022/03/08 05:25:14;;;;;;;1.42;1.27;;;0.30;99.90;;;;;;4433795;32;20090;-64
2022/03/08 05:27:40;;;;;;;0.45;0.45;;;0.40;99.90;;;;;;4434438;32;20125;-65
2022/03/08 05:30:06;;;;;;;0.30;0.30;;;0.40;99.90;;;;;;4434448;32;20093;-65
2022/03/08 05:32:32;;;;;;;0.57;0.57;;;0.30;99.90;;;;;;4441260;32;20509;-65
2022/03/08 05:34:57;;;;;;;0.40;0.40;;;0.30;99.90;;;;;;4437715;32;20101;-65
2022/03/08 05:37:23;;;;;;;0.30;0.30;;;0.30;99.90;;;;;;4432847;32;20069;-65
2022/03/08 05:39:48;;;;;;;0.85;0.82;;;0.30;99.90;;;;;;4439789;32;20085;-65
2022/03/08 05:42:14;;;;;;;0.60;0.60;;;0.40;99.90;;;;;;4434788;32;20061;-65
2022/03/08 05:44:39;;;;;;;1.65;1.10;;;0.50;99.90;;;;;;4432465;32;20084;-65
2022/03/08 05:47:06;;;;;;;0.65;0.65;;;0.50;99.90;;;;;;4424461;32;20839;-65
2022/03/08 05:49:31;;;;;;;0.40;0.40;;;0.40;99.90;;;;;;4439896;32;20069;-65
2022/03/08 05:51:57;;;;;;;0.40;0.40;;;0.50;99.90;;;;;;4432413;32;20078;-65
2022/03/08 05:54:23;;;;;;;0.65;0.65;;;0.30;99.90;;;;;;4435868;32;20073;-65
2022/03/08 05:56:48;;;;;;;0.55;0.55;;;0.30;99.90;;;;;;4435135;32;20061;-65
2022/03/08 05:59:14;;;;;;;0.77;0.62;;;0.10;99.90;;;;;;4430434;32;20146;-64
2022/03/08 06:01:40;;;;;;;0.70;0.70;;;0.00;99.90;;;;;;4417756;32;20061;-64
2022/03/08 06:04:06;;;;;;;0.77;0.77;;;0.00;99.90;;;;;;4438253;32;20204;-64
2022/03/08 06:06:32;;;;;;;0.50;0.50;;;0.00;99.90;;;;;;4418569;32;20160;-64
2022/03/08 06:08:57;;;;;;;0.30;0.30;;;-0.10;99.90;;;;;;4432617;32;20138;-65
2022/03/08 06:11:23;;;;;;;3.37;1.85;;;-0.10;99.90;;;;;;4429537;32;20140;-65
2022/03/08 06:13:48;;;;;;;0.52;0.52;;;0.00;99.90;;;;;;4432875;32;20069;-65
2022/03/08 06:16:14;;;;;;;1.75;1.45;;;0.10;99.90;;;;;;4439131;32;20111;-65
2022/03/08 06:18:40;;;;;;;0.50;0.50;;;0.30;99.90;;;;;;4435080;32;20568;-65
2022/03/08 06:21:05;;;;;;;0.47;0.47;;;0.30;99.90;;;;;;4438519;32;20069;-65
2022/03/08 06:23:31;;;;;;;0.50;0.50;;;0.20;99.90;;;;;;4434989;32;20371;-65
2022/03/08 06:25:57;;;;;;;0.40;0.40;;;0.10;99.90;;;;;;4431659;32;20073;-65
2022/03/08 06:28:23;;;;;;;0.80;0.80;;;0.30;99.90;;;;;;4415305;32;20570;-65
2022/03/08 06:30:48;;;;;;;0.40;0.40;;;0.30;99.90;;;;;;4434816;32;20077;-65
2022/03/08 06:33:13;;;;;;;1.35;0.77;;;0.30;99.90;;;;;;4431726;32;20068;-65
2022/03/08 06:35:39;;;;;;;0.50;0.50;;;0.40;99.90;;;;;;4431257;32;20530;-64
2022/03/08 06:38:04;;;;;;;0.70;0.70;;;0.40;99.90;;;;;;4431037;32;20061;-65
2022/03/08 06:40:32;;;;;;;2.20;1.35;;;0.50;99.90;;;;;;4434884;32;20073;-64
2022/03/08 06:42:57;;;;;;;1.10;1.00;;;0.50;99.90;;;;;;4418442;32;20061;-65
2022/03/08 06:45:23;;;;;;;3.00;1.85;;;0.60;99.90;;;;;;4431594;32;20426;-65
2022/03/08 06:47:48;;;;;;;0.50;0.50;;;0.90;99.90;;;;;;4419432;32;20077;-65
2022/03/08 06:50:14;;;;;;;0.40;0.40;;;1.10;99.90;;;;;;4432271;32;20085;-64
2022/03/08 06:52:39;;;;;;;0.62;0.62;;;1.30;99.90;;;;;;4436864;32;20468;-63
2022/03/08 06:55:05;;;;;;;0.73;0.73;;;1.20;99.90;;;;;;4432384;32;20552;-63
2022/03/08 06:57:31;;;;;;;0.57;0.57;;;1.20;99.90;;;;;;4416273;32;20470;-65
2022/03/08 06:59:56;;;;;;;1.87;1.45;;;1.40;99.90;;;;;;4414756;32;20057;-65
2022/03/08 07:02:22;;;;;;;0.40;0.40;;;1.40;99.90;;;;;;4435047;32;20122;-65
2022/03/08 07:04:47;;;;;;;0.77;0.77;;;1.40;99.90;;;;;;4439099;32;20150;-64
2022/03/08 07:07:13;;;;;;;0.50;0.50;;;1.60;99.90;;;;;;4434578;32;20066;-64
2022/03/08 07:09:39;;;;;;;1.02;1.02;;;1.70;99.90;;;;;;4436831;32;20081;-65
2022/03/08 07:12:05;;;;;;;0.40;0.40;;;1.80;99.90;;;;;;4433250;32;20073;-64
2022/03/08 07:14:30;;;;;;;0.50;0.50;;;1.70;99.90;;;;;;4433370;32;20062;-64
2022/03/08 07:16:56;;;;;;;0.40;0.40;;;1.70;99.90;;;;;;4432762;32;20436;-63
2022/03/08 07:19:21;;;;;;;0.50;0.50;;;1.60;99.90;;;;;;4428108;32;20155;-64
2022/03/08 07:21:47;;;;;;;0.43;0.43;;;1.70;99.90;;;;;;4433284;32;20130;-65
2022/03/08 07:24:13;;;;;;;0.50;0.50;;;1.70;99.90;;;;;;4424567;32;20532;-66
2022/03/08 07:26:39;;;;;;;1.87;1.67;;;1.90;99.90;;;;;;4406888;32;20573;-64
2022/03/08 07:29:05;;;;;;;0.75;0.75;;;2.00;99.90;;;;;;4432271;32;20393;-65
2022/03/08 07:31:30;;;;;;;0.57;0.57;;;2.10;99.90;;;;;;4432272;32;20521;-65
2022/03/08 07:33:56;;;;;;;0.40;0.40;;;2.20;99.90;;;;;;4431362;32;119143;-65
2022/03/08 07:36:22;;;;;;;1.08;0.98;;;2.20;99.90;;;;;;4418679;32;20380;-65
2022/03/08 07:38:48;;;;;;;2.12;0.85;;;2.30;99.90;;;;;;4439974;32;20616;-64
2022/03/08 07:41:14;;;;;;;8.05;1.05;;;2.60;99.90;;;;;;4434936;32;20445;-65
2022/03/08 07:43:39;;;;;;;1.02;0.95;;;2.70;99.90;;;;;;4438520;32;20128;-65
2022/03/08 07:46:08;;;;;;;0.50;0.50;;;2.70;99.90;;;;;;4423970;32;20495;-65
2022/03/08 07:48:34;;;;;;;0.82;0.82;;;2.80;99.90;;;;;;4420485;32;20124;-65
2022/03/08 07:51:00;;;;;;;2.00;1.17;;;3.00;99.90;;;;;;4433230;32;20143;-65
2022/03/08 07:53:26;;;;;;;0.40;0.40;;;3.10;99.90;;;;;;4439193;32;20061;-65
2022/03/08 07:55:52;;;;;;;0.77;0.77;;;3.30;99.90;;;;;;4431396;32;20065;-65
2022/03/08 07:58:17;;;;;;;0.70;0.70;;;3.50;99.90;;;;;;4423389;32;20068;-65
2022/03/08 08:00:43;;;;;;;0.60;0.60;;;3.60;99.90;;;;;;4418374;32;20060;-65
2022/03/08 08:03:09;;;;;;;0.75;0.75;;;3.60;99.90;;;;;;4419154;32;20054;-64
2022/03/08 08:05:35;;;;;;;1.15;1.05;;;3.80;99.90;;;;;;4434516;32;20058;-65
2022/03/08 08:08:02;;;;;;;0.55;0.55;;;3.90;99.90;;;;;;4436628;32;20065;-64
2022/03/08 08:10:27;;;;;;;0.90;0.82;;;4.00;99.90;;;;;;4419487;32;20061;-65
2022/03/08 08:12:53;;;;;;;1.90;1.17;;;4.10;99.90;;;;;;4432845;32;20065;-65
2022/03/08 08:15:18;;;;;;;0.68;0.68;;;4.10;99.90;;;;;;4420208;32;20058;-65
2022/03/08 08:17:44;;;;;;;1.25;0.70;;;4.30;99.90;;;;;;4429043;32;20120;-65
2022/03/08 08:20:10;;;;;;;0.70;0.70;;;4.40;99.90;;;;;;4430319;32;20139;-65
2022/03/08 08:22:36;;;;;;;0.65;0.65;;;4.50;99.90;;;;;;4432062;32;20072;-65
2022/03/08 08:25:02;;;;;;;0.60;0.60;;;4.60;99.90;;;;;;4433435;32;20108;-65
2022/03/08 08:27:28;;;;;;;2.67;1.80;;;4.90;99.90;;;;;;4433133;32;20065;-65
2022/03/08 08:29:53;;;;;;;0.45;0.45;;;5.00;99.90;;;;;;4430732;32;20078;-65
2022/03/08 08:32:18;;;;;;;1.17;1.00;;;5.00;99.90;;;;;;4432312;32;20521;-65
2022/03/08 08:34:44;;;;;;;0.62;0.62;;;5.10;99.90;;;;;;4437025;32;20061;-65
2022/03/08 08:37:10;;;;;;;0.80;0.80;;;5.30;99.90;;;;;;4435267;32;20088;-65
2022/03/08 08:39:36;;;;;;;0.62;0.62;;;5.30;99.90;;;;;;4436770;32;20931;-65
2022/03/08 08:42:01;;;;;;;0.70;0.70;;;5.40;99.90;;;;;;4436232;32;20052;-65
2022/03/08 08:44:27;;;;;;;0.75;0.73;;;5.60;99.90;;;;;;4418924;32;20562;-65
2022/03/08 08:46:53;;;;;;;0.50;0.50;;;5.70;99.90;;;;;;4434243;32;20105;-66
2022/03/08 08:49:19;;;;;;;0.40;0.40;;;5.70;99.90;;;;;;4437427;32;20548;-65
2022/03/08 08:51:45;;;;;;;2.00;0.70;;;5.70;99.90;;;;;;4417971;32;20384;-65
2022/03/08 08:54:10;;;;;;;0.88;0.80;;;6.00;99.90;;;;;;4423634;32;20058;-65
2022/03/08 08:56:36;;;;;;;0.80;0.73;;;6.10;99.90;;;;;;4438685;32;20112;-65
2022/03/08 08:59:03;;;;;;;0.43;0.43;;;6.20;99.90;;;;;;4420261;32;20469;-65
2022/03/08 09:01:28;;;;;;;1.87;1.05;;;6.30;99.90;;;;;;4420739;32;20132;-65
2022/03/08 09:03:54;;;;;;;0.47;0.47;;;6.30;99.90;;;;;;4434501;32;20537;-65
2022/03/08 09:06:19;;;;;;;0.40;0.40;;;6.50;99.90;;;;;;4436612;32;20451;-65
2022/03/08 09:08:46;;;;;;;0.45;0.45;;;6.60;99.90;;;;;;4431703;32;20118;-65
2022/03/08 09:11:12;;;;;;;1.42;0.80;;;6.80;99.90;;;;;;4434303;32;20526;-65
2022/03/08 09:13:38;;;;;;;0.50;0.50;;;6.90;99.90;;;;;;4422484;32;20116;-65
2022/03/08 09:16:04;;;;;;;3.03;0.77;;;7.00;99.90;;;;;;4421553;32;20057;-65
2022/03/08 09:18:29;;;;;;;17.75;0.73;;;7.00;99.90;;;;;;4436720;32;20072;-65
2022/03/08 09:20:55;;;;;;;1.20;0.70;;;7.30;99.90;;;;;;4423690;32;20061;-65
2022/03/08 09:23:21;;;;;;;0.35;0.35;;;7.30;99.90;;;;;;4435464;32;20474;-64
2022/03/08 09:25:46;;;;;;;2.40;0.73;;;7.30;99.90;;;;;;4421712;32;20061;-65
2022/03/08 09:28:12;;;;;;;1.80;0.52;;;7.30;99.90;;;;;;4419605;32;20469;-65
2022/03/08 09:30:38;;;;;;;0.45;0.45;;;7.40;99.90;;;;;;4432338;32;20156;-65
2022/03/08 09:33:04;;;;;;;0.47;0.47;;;7.40;99.90;;;;;;4419510;32;20057;-65
2022/03/08 09:35:30;;;;;;;0.57;0.57;;;7.50;99.90;;;;;;4432115;32;20433;-65
2022/03/08 09:37:57;;;;;;;1.65;0.88;;;7.80;99.90;;;;;;4412770;32;20621;-65
2022/03/08 09:40:23;;;;;;;0.40;0.40;;;8.10;99.90;;;;;;4416560;32;20643;-65
2022/03/08 09:42:49;;;;;;;0.45;0.45;;;8.10;99.90;;;;;;4419856;32;20066;-65
2022/03/08 09:45:17;;;;;;;2.08;0.70;;;8.20;99.90;;;;;;4420873;32;20445;-65
2022/03/08 09:47:43;;;;;;;0.40;0.40;;;8.30;99.90;;;;;;4417511;32;20084;-65
2022/03/08 09:50:11;;;;;;;0.60;0.60;;;8.50;99.90;;;;;;4415114;32;20121;-65
2022/03/08 09:52:38;;;;;;;0.40;0.40;;;8.60;99.90;;;;;;4433739;32;20077;-65
2022/03/08 09:55:06;;;;;;;2.92;0.70;;;8.30;99.90;;;;;;4436609;32;20115;-65
2022/03/08 09:57:32;;;;;;;0.50;0.50;;;8.70;99.90;;;;;;4432846;32;20115;-65
2022/03/08 09:59:58;;;;;;;3.12;0.57;;;8.90;99.90;;;;;;4423510;32;20069;-65
2022/03/08 10:02:23;;;;;;;1.42;0.85;;;9.00;99.90;;;;;;4438410;32;20053;-65
2022/03/08 10:05:02;;;;;;;2.25;0.57;;;9.00;99.90;;;;;;4431979;32;20307;-65
2022/03/08 10:07:28;;;;;;;0.43;0.43;;;9.10;99.90;;;;;;4418785;32;20147;-65
2022/03/08 10:09:56;;;;;;;0.30;0.30;;;9.20;99.90;;;;;;4429842;32;20471;-65
2022/03/08 10:12:22;;;;;;;1.95;0.65;;;9.40;98.10;;;;;;4416780;32;20053;-65
2022/03/08 10:14:48;;;;;;;0.30;0.30;;;9.70;97.60;;;;;;4435000;32;20056;-65
2022/03/08 10:17:35;;;;;;;0.50;0.50;;;9.90;96.80;;;;;;4433689;32;20084;-65
2022/03/08 10:20:01;;;;;;;0.60;0.60;;;9.60;96.30;;;;;;4421280;32;20109;-65
2022/03/08 10:22:30;;;;;;;0.45;0.45;;;9.40;96.80;;;;;;4433962;32;20164;-65
2022/03/08 10:25:18;;;;;;;0.45;0.45;;;9.70;97.10;;;;;;4430477;32;20057;-65
2022/03/08 10:28:02;;;;;;;2.28;0.93;;;10.40;95.80;;;;;;4411881;32;20061;-65
2022/03/08 10:30:45;;;;;;;0.30;0.30;;;10.40;95.60;;;;;;4416437;32;20109;-65
2022/03/08 10:33:19;;;;;;;0.37;0.37;;;10.30;95.20;;;;;;4434695;32;20065;-65
2022/03/08 10:35:47;;;;;;;0.43;0.43;;;10.00;95.80;;;;;;4418118;32;20123;-65
2022/03/08 10:38:12;;;;;;;0.40;0.40;;;10.00;95.90;;;;;;4416600;32;20119;-65
2022/03/08 10:40:40;;;;;;;0.60;0.60;;;10.10;94.80;;;;;;4434225;32;20122;-65
2022/03/08 10:43:07;;;;;;;0.75;0.50;;;10.10;95.70;;;;;;4416389;32;20069;-65
2022/03/08 10:45:35;;;;;;;0.30;0.30;;;10.00;96.60;;;;;;4422377;32;20064;-65
2022/03/08 10:48:06;;;;;;;0.57;0.47;;;10.10;96.10;;;;;;4424289;32;20515;-65
2022/03/08 10:50:34;;;;;;;0.45;0.45;;;9.90;95.70;;;;;;4418435;32;20078;-65
2022/03/08 10:53:04;;;;;;;0.93;0.80;;;10.10;95.20;;;;;;4418856;32;20124;-65
2022/03/08 10:55:32;;;;;;;0.60;0.45;;;10.20;96.00;;;;;;4415846;32;20136;-65
2022/03/08 10:58:02;;;;;;;0.50;0.50;;;10.40;94.70;;;;;;4430350;32;20061;-65
2022/03/08 11:00:30;;;;;;;0.43;0.43;;;10.50;94.50;;;;;;4435121;32;20341;-65
2022/03/08 11:02:58;;;;;;;15.52;0.90;;;10.50;94.10;;;;;;4414836;32;20125;-65
2022/03/08 11:05:26;;;;;;;0.57;0.57;;;10.60;93.90;;;;;;4419418;32;20061;-65
2022/03/08 11:07:52;;;;;;;0.30;0.30;;;10.70;94.50;;;;;;4418309;32;20406;-65
2022/03/08 11:10:18;;;;;;;0.30;0.30;;;10.80;93.80;;;;;;4435059;32;20065;-65
2022/03/08 11:12:44;;;;;;;0.57;0.57;;;10.90;93.50;;;;;;4416615;32;20504;-65
2022/03/08 11:15:13;;;;;;;0.45;0.45;;;11.00;93.70;;;;;;4422487;32;20319;-65
2022/03/08 11:17:41;;;;;;;0.45;0.45;;;11.00;92.90;;;;;;4427695;32;20061;-65
2022/03/08 11:20:08;;;;;;;0.30;0.30;;;11.40;93.20;;;;;;4419659;32;20085;-65
2022/03/08 11:22:35;;;;;;;0.43;0.43;;;11.80;92.10;;;;;;4431892;32;20053;-65
2022/03/08 11:25:01;;;;;;;0.40;0.40;;;11.90;91.90;;;;;;4434467;32;20081;-65
2022/03/08 11:27:27;;;;;;;1.12;0.88;;;12.10;91.90;;;;;;4413685;32;20093;-64
2022/03/08 11:29:52;;;;;;;0.30;0.30;;;12.20;91.50;;;;;;4428972;32;20070;-64
2022/03/08 11:32:27;;;;;;;0.60;0.45;;;12.20;91.20;;;;;;4428895;32;20074;-64
2022/03/08 11:34:59;;;;;;;0.40;0.40;;;12.10;90.80;;;;;;4419688;32;20161;-64
2022/03/08 11:37:27;;;;;;;0.40;0.40;;;12.30;90.90;;;;;;4410321;32;20093;-64
2022/03/08 11:40:11;;;;;;;1.00;0.68;;;12.50;90.40;;;;;;4433441;32;20073;-64
2022/03/08 11:42:41;;;;;;;1.17;0.98;;;12.70;88.70;;;;;;4417709;32;20057;-64
2022/03/08 11:45:11;;;;;;;;;;;12.80;90.70;;;;;;4417284;32;20089;-64
2022/03/08 11:47:56;;;;;;;0.40;0.40;;;13.20;87.40;;;;;;4431419;32;19968;-64
2022/03/08 11:50:27;;;;;;;1.30;0.65;;;13.30;87.40;;;;;;4429738;32;20053;-64
2022/03/08 11:53:06;;;;;;;0.30;0.30;;;13.60;85.90;;;;;;4420580;32;20123;-64
2022/03/08 11:55:34;;;;;;;1.65;0.55;;;13.60;84.60;;;;;;4426942;32;20419;-64
2022/03/08 11:58:03;;;;;;;0.25;0.25;;;13.90;82.80;;;;;;4416082;32;20085;-64
2022/03/08 12:00:34;;;;;;;1.55;0.60;;;14.10;84.30;;;;;;4415697;32;20062;-64
2022/03/08 12:03:04;;;;;;;0.73;0.70;;;14.50;80.30;;;;;;4430484;32;20086;-64
2022/03/08 12:05:58;;;;;;;0.32;0.32;;;14.60;80.00;;;;;;4420065;32;20322;-64
2022/03/08 12:08:28;;;;;;;0.50;0.50;;;14.50;78.60;;;;;;4424242;32;20092;-66
2022/03/08 12:11:00;;;;;;;0.40;0.40;;;14.70;80.20;;;;;;4432333;32;20060;-65
2022/03/08 12:13:26;;;;;;;15.13;0.70;;;14.80;77.90;;;;;;4435230;32;20061;-64
2022/03/08 12:16:10;;;;;;;1.08;0.75;;;14.60;78.00;;;;;;4434934;32;20065;-64
2022/03/08 12:18:37;;;;;;;0.40;0.40;;;14.90;77.50;;;;;;4431945;32;20089;-66
2022/03/08 12:21:24;;;;;;;0.30;0.30;;;15.30;75.40;;;;;;4424176;32;20081;-65
2022/03/08 12:23:54;;;;;;;0.47;0.40;;;15.70;75.60;;;;;;4419505;32;20064;-65
2022/03/08 12:26:41;;;;;;;0.37;0.37;;;15.70;73.50;;;;;;4407564;32;20070;-65
2022/03/08 12:29:22;;;;;;;33.20;1.83;;;15.60;73.80;;;;;;4430458;32;20541;-65
2022/03/08 12:32:06;;;;;;;0.50;0.50;;;15.90;74.90;;;;;;4431516;32;20076;-65
2022/03/08 12:34:35;;;;;;;0.85;0.80;;;16.30;74.00;;;;;;4431237;32;20566;-65
2022/03/08 12:37:04;;;;;;;0.40;0.40;;;16.40;71.70;;;;;;4431122;32;20561;-65
2022/03/08 12:39:48;;;;;;;1.85;0.73;;;16.30;70.60;;;;;;4419025;32;20120;-65
2022/03/08 12:42:20;;;;;;;0.40;0.40;;;17.00;70.60;;;;;;4431349;32;20432;-65
2022/03/08 12:44:51;;;;;;;3.40;1.08;;;17.10;69.10;;;;;;4434768;32;20145;-65
2022/03/08 12:47:17;;;;;;;0.32;0.32;;;16.90;69.30;;;;;;4421335;32;20074;-65
2022/03/08 12:49:43;;;;;;;0.40;0.40;;;16.90;67.50;;;;;;4408645;32;20514;-65
2022/03/08 12:52:10;;;;;;;0.43;0.43;;;16.70;67.90;;;;;;4434160;32;20119;-65
2022/03/08 12:54:38;;;;;;;0.73;0.37;;;16.70;69.40;;;;;;4423071;32;20625;-65